Cinque Terre — IUTV — position and weather

sailwx.info

Track history (hours):
 
Tides and Currents Weather Stations Pressure Air Temp Water Temp Dewpoint Dewpoint Depression Visibility Wind Speed Wind Dir Waves Ship Positions

Cinque Terre

Last reported at 2017-Aug-22 16:42 UTC. Time now 2017-Aug-24 06:56 UTC.
Position N 40°38' E 014°20'.

Length 15 m; draft 1 m.

Type: Passenger vessel. MMSI: 247208400.

Date/timePositionNaut miles runAvg speedWind from/ knotsBaromVisibWave heightAir tempDewpointWater temp
2017-Aug-22 16:42N 40°38' E 014°20'0 2.4
2017-Aug-22 16:30N 40°38' E 014°21'8 0.2
2017-Aug-20 13:39N 40°33' E 014°14'0 0.0
2017-Aug-20 13:24N 40°33' E 014°14'0 0.0
2017-Aug-20 13:00N 40°33' E 014°14'0 0.0
2017-Aug-20 11:56N 40°33' E 014°14'0 0.0
2017-Aug-20 11:29N 40°33' E 014°14'0 0.0
2017-Aug-20 11:00N 40°33' E 014°14'0 0.0
2017-Aug-20 10:17N 40°33' E 014°14'2 1.2
2017-Aug-20 09:02N 40°32' E 014°12'010.2
2017-Aug-20 09:00N 40°32' E 014°12'8 0.5
2017-Aug-19 16:47N 40°38' E 014°20'0 1.0
2017-Aug-19 16:30N 40°38' E 014°21'7 1.9
2017-Aug-19 12:38N 40°33' E 014°14'0 0.0
2017-Aug-19 12:30N 40°33' E 014°14'0 0.0
2017-Aug-19 12:00N 40°33' E 014°14'0 0.0
2017-Aug-19 11:30N 40°33' E 014°14'0 0.0
2017-Aug-19 11:00N 40°33' E 014°14'0 0.0
2017-Aug-19 10:30N 40°33' E 014°14'2 1.6
2017-Aug-19 09:24N 40°33' E 014°12'2 5.7
2017-Aug-19 09:00N 40°32' E 014°15'6 0.4
2017-Aug-18 16:56N 40°37' E 014°20'0 0.1
2017-Aug-18 16:30N 40°37' E 014°20'3 5.7
2017-Aug-18 15:59N 40°35' E 014°17'2 2.5
2017-Aug-18 15:15N 40°33' E 014°16'2 5.0
2017-Aug-18 14:53N 40°33' E 014°14'0 0.0
2017-Aug-18 14:30N 40°33' E 014°14'0 0.0
2017-Aug-18 13:30N 40°33' E 014°14'0 0.0
2017-Aug-18 11:21N 40°33' E 014°14'0 0.0
2017-Aug-18 10:59N 40°33' E 014°14'0 0.0
2017-Aug-18 10:30N 40°33' E 014°14'2 3.5
2017-Aug-18 10:00N 40°33' E 014°16'3 5.1
2017-Aug-18 09:23N 40°34' E 014°12'2 4.6
2017-Aug-18 09:00N 40°32' E 014°13'3 5.7
2017-Aug-18 08:30N 40°34' E 014°16'4 0.3
2017-Aug-17 16:51N 40°37' E 014°20'1 3.3
2017-Aug-17 16:30N 40°38' E 014°21'4 7.3
2017-Aug-17 16:00N 40°35' E 014°18'2 3.0
2017-Aug-17 15:20N 40°33' E 014°16'2 0.5
2017-Aug-17 11:33N 40°33' E 014°14'0 0.2
2017-Aug-17 11:30N 40°33' E 014°14'0 0.0
2017-Aug-17 11:00N 40°33' E 014°14'0 0.0
2017-Aug-17 10:30N 40°33' E 014°14'2 3.1
2017-Aug-17 10:00N 40°33' E 014°16'3 4.2
2017-Aug-17 09:15N 40°34' E 014°12'2 5.9
2017-Aug-17 08:58N 40°32' E 014°13'3 5.9
2017-Aug-17 08:25N 40°34' E 014°17'4 0.3
2017-Aug-16 16:47N 40°37' E 014°20'1 3.8
2017-Aug-16 16:30N 40°38' E 014°21'3 6.7
2017-Aug-16 16:00N 40°35' E 014°18'2 3.4
2017-Aug-16 15:15N 40°33' E 014°16'2 6.0
2017-Aug-16 15:00N 40°32' E 014°14'0 0.7
2017-Aug-16 14:30N 40°33' E 014°14'0 0.0
2017-Aug-16 14:00N 40°33' E 014°14'0 0.0
2017-Aug-16 12:11N 40°33' E 014°14'0 0.1
2017-Aug-16 12:00N 40°33' E 014°14'0 0.0
2017-Aug-16 11:19N 40°33' E 014°14'0 0.0
2017-Aug-16 11:00N 40°33' E 014°14'0 0.0
2017-Aug-16 10:30N 40°33' E 014°14'0 0.0
2017-Aug-16 10:00N 40°33' E 014°14'2 2.1
2017-Aug-16 09:05N 40°34' E 014°12'111.1
2017-Aug-16 09:00N 40°33' E 014°12'3 6.2
2017-Aug-16 08:30N 40°33' E 014°16'5 0.4
2017-Aug-15 18:53N 40°37' E 014°20'1 1.5
2017-Aug-15 18:27N 40°37' E 014°19'1 0.3
2017-Aug-15 16:36N 40°37' E 014°20'113.5
2017-Aug-15 16:30N 40°38' E 014°21'7 3.7
2017-Aug-15 14:35N 40°32' E 014°15'1 3.8
2017-Aug-15 14:23N 40°33' E 014°14'0 0.0
2017-Aug-15 11:32N 40°33' E 014°14'0 0.1
2017-Aug-15 11:30N 40°33' E 014°14'0 0.0
2017-Aug-15 10:42N 40°33' E 014°14'0 0.1
2017-Aug-15 10:30N 40°33' E 014°14'7 0.4
2017-Aug-14 16:44N 40°38' E 014°20'1 2.3
2017-Aug-14 16:31N 40°38' E 014°21'  
Track history (hours):
 
Tides and Currents Weather Stations Pressure Air Temp Water Temp Dewpoint Dewpoint Depression Visibility Wind Speed Wind Dir Waves Ship Positions

Cinque Terre

Last reported at 2017-Aug-22 16:42 UTC. Time now 2017-Aug-24 06:56 UTC.
Position N 40°38' E 014°20'.

Length 15 m; draft 1 m.

Type: Passenger vessel. MMSI: 247208400.

Date/timePositionNaut miles runAvg speedWind from/ knotsBaromVisibWave heightAir tempDewpointWater temp
2017-Aug-22 16:42N 40°38' E 014°20'0 2.4
2017-Aug-22 16:30N 40°38' E 014°21'8 0.2
2017-Aug-20 13:39N 40°33' E 014°14'0 0.0
2017-Aug-20 13:24N 40°33' E 014°14'0 0.0
2017-Aug-20 13:00N 40°33' E 014°14'0 0.0
2017-Aug-20 11:56N 40°33' E 014°14'0 0.0
2017-Aug-20 11:29N 40°33' E 014°14'0 0.0
2017-Aug-20 11:00N 40°33' E 014°14'0 0.0
2017-Aug-20 10:17N 40°33' E 014°14'2 1.2
2017-Aug-20 09:02N 40°32' E 014°12'010.2
2017-Aug-20 09:00N 40°32' E 014°12'8 0.5
2017-Aug-19 16:47N 40°38' E 014°20'0 1.0
2017-Aug-19 16:30N 40°38' E 014°21'7 1.9
2017-Aug-19 12:38N 40°33' E 014°14'0 0.0
2017-Aug-19 12:30N 40°33' E 014°14'0 0.0
2017-Aug-19 12:00N 40°33' E 014°14'0 0.0
2017-Aug-19 11:30N 40°33' E 014°14'0 0.0
2017-Aug-19 11:00N 40°33' E 014°14'0 0.0
2017-Aug-19 10:30N 40°33' E 014°14'2 1.6
2017-Aug-19 09:24N 40°33' E 014°12'2 5.7
2017-Aug-19 09:00N 40°32' E 014°15'6 0.4
2017-Aug-18 16:56N 40°37' E 014°20'0 0.1
2017-Aug-18 16:30N 40°37' E 014°20'3 5.7
2017-Aug-18 15:59N 40°35' E 014°17'2 2.5
2017-Aug-18 15:15N 40°33' E 014°16'2 5.0
2017-Aug-18 14:53N 40°33' E 014°14'0 0.0
2017-Aug-18 14:30N 40°33' E 014°14'0 0.0
2017-Aug-18 13:30N 40°33' E 014°14'0 0.0
2017-Aug-18 11:21N 40°33' E 014°14'0 0.0
2017-Aug-18 10:59N 40°33' E 014°14'0 0.0
2017-Aug-18 10:30N 40°33' E 014°14'2 3.5
2017-Aug-18 10:00N 40°33' E 014°16'3 5.1
2017-Aug-18 09:23N 40°34' E 014°12'2 4.6
2017-Aug-18 09:00N 40°32' E 014°13'3 5.7
2017-Aug-18 08:30N 40°34' E 014°16'4 0.3
2017-Aug-17 16:51N 40°37' E 014°20'1 3.3
2017-Aug-17 16:30N 40°38' E 014°21'4 7.3
2017-Aug-17 16:00N 40°35' E 014°18'2 3.0
2017-Aug-17 15:20N 40°33' E 014°16'2 0.5
2017-Aug-17 11:33N 40°33' E 014°14'0 0.2
2017-Aug-17 11:30N 40°33' E 014°14'0 0.0
2017-Aug-17 11:00N 40°33' E 014°14'0 0.0
2017-Aug-17 10:30N 40°33' E 014°14'2 3.1
2017-Aug-17 10:00N 40°33' E 014°16'3 4.2
2017-Aug-17 09:15N 40°34' E 014°12'2 5.9
2017-Aug-17 08:58N 40°32' E 014°13'3 5.9
2017-Aug-17 08:25N 40°34' E 014°17'4 0.3
2017-Aug-16 16:47N 40°37' E 014°20'1 3.8
2017-Aug-16 16:30N 40°38' E 014°21'3 6.7
2017-Aug-16 16:00N 40°35' E 014°18'2 3.4
2017-Aug-16 15:15N 40°33' E 014°16'2 6.0
2017-Aug-16 15:00N 40°32' E 014°14'0 0.7
2017-Aug-16 14:30N 40°33' E 014°14'0 0.0
2017-Aug-16 14:00N 40°33' E 014°14'0 0.0
2017-Aug-16 12:11N 40°33' E 014°14'0 0.1
2017-Aug-16 12:00N 40°33' E 014°14'0 0.0
2017-Aug-16 11:19N 40°33' E 014°14'0 0.0
2017-Aug-16 11:00N 40°33' E 014°14'0 0.0
2017-Aug-16 10:30N 40°33' E 014°14'0 0.0
2017-Aug-16 10:00N 40°33' E 014°14'2 2.1
2017-Aug-16 09:05N 40°34' E 014°12'111.1
2017-Aug-16 09:00N 40°33' E 014°12'3 6.2
2017-Aug-16 08:30N 40°33' E 014°16'5 0.4
2017-Aug-15 18:53N 40°37' E 014°20'1 1.5
2017-Aug-15 18:27N 40°37' E 014°19'1 0.3
2017-Aug-15 16:36N 40°37' E 014°20'113.5
2017-Aug-15 16:30N 40°38' E 014°21'7 3.7
2017-Aug-15 14:35N 40°32' E 014°15'1 3.8
2017-Aug-15 14:23N 40°33' E 014°14'0 0.0
2017-Aug-15 11:32N 40°33' E 014°14'0 0.1
2017-Aug-15 11:30N 40°33' E 014°14'0 0.0
2017-Aug-15 10:42N 40°33' E 014°14'0 0.1
2017-Aug-15 10:30N 40°33' E 014°14'7 0.4
2017-Aug-14 16:44N 40°38' E 014°20'1 2.3
2017-Aug-14 16:31N 40°38' E 014°21'  

Dump ship's entire track history